createdAt,value
2018-08-31T00:02:17.157Z,13.23
2018-08-31T00:04:50.761Z,13.37
2018-08-31T00:07:26.053Z,13.00
2018-08-31T00:10:01.723Z,13.10
2018-08-31T00:12:35.656Z,13.87
2018-08-31T00:15:03.973Z,13.10
2018-08-31T00:17:32.087Z,12.90
2018-08-31T00:20:00.184Z,14.23
2018-08-31T00:22:28.285Z,14.20
2018-08-31T00:26:01.298Z,12.70
2018-08-31T00:28:35.097Z,12.50
2018-08-31T00:31:13.520Z,13.97
2018-08-31T00:33:49.004Z,12.80
2018-08-31T00:36:22.513Z,13.47
2018-08-31T00:41:04.744Z,13.43
2018-08-31T00:44:41.245Z,13.80
2018-08-31T00:47:09.373Z,13.63
2018-08-31T00:49:37.473Z,13.00
2018-08-31T00:52:05.909Z,12.47
2018-08-31T00:54:33.958Z,13.70
2018-08-31T00:57:02.007Z,12.57
2018-08-31T00:59:30.150Z,12.87
2018-08-31T01:01:58.205Z,12.00
2018-08-31T01:04:26.289Z,11.43
2018-08-31T01:06:54.469Z,12.90
2018-08-31T01:09:22.741Z,13.67
2018-08-31T01:11:50.823Z,13.50
2018-08-31T01:14:18.912Z,12.50
2018-08-31T01:16:47.062Z,11.93
2018-08-31T01:19:15.120Z,12.40
2018-08-31T01:21:43.769Z,11.93
2018-08-31T01:24:11.820Z,11.77
2018-08-31T01:26:39.861Z,11.03
2018-08-31T01:29:07.948Z,11.60
2018-08-31T01:31:36.030Z,10.97
2018-08-31T01:34:04.084Z,10.57
2018-08-31T01:36:32.240Z,11.63
2018-08-31T01:39:00.392Z,11.23
2018-08-31T01:41:28.492Z,10.00
2018-08-31T01:43:56.915Z,10.60
2018-08-31T01:46:24.986Z,10.60
2018-08-31T01:48:53.082Z,11.00
2018-08-31T01:51:21.603Z,10.30
2018-08-31T01:53:49.657Z,10.27
2018-08-31T01:56:17.741Z,9.90
2018-08-31T01:58:45.892Z,9.10
2018-08-31T02:01:14.015Z,9.17
2018-08-31T02:03:42.189Z,9.03
2018-08-31T02:06:10.375Z,9.30
2018-08-31T02:08:43.096Z,9.50
2018-08-31T02:11:11.235Z,9.70
2018-08-31T02:13:39.421Z,8.97
2018-08-31T02:16:07.533Z,8.53
2018-08-31T02:18:35.589Z,9.80
2018-08-31T02:21:04.399Z,9.70
2018-08-31T02:23:32.718Z,10.00
2018-08-31T02:26:00.785Z,10.00
2018-08-31T02:28:28.962Z,10.53
2018-08-31T02:30:57.033Z,10.43
2018-08-31T02:33:25.096Z,9.50
2018-08-31T02:35:53.192Z,9.73
2018-08-31T02:38:21.265Z,9.80
2018-08-31T02:40:49.322Z,9.70
2018-08-31T02:43:17.406Z,8.83
2018-08-31T02:45:45.556Z,8.70
2018-08-31T02:48:13.638Z,9.20
2018-08-31T02:50:41.717Z,9.17
2018-08-31T02:53:09.902Z,8.97
2018-08-31T02:55:37.936Z,8.00
2018-08-31T02:58:06.140Z,9.03
2018-08-31T03:00:34.212Z,8.37
2018-08-31T03:03:02.383Z,7.80
2018-08-31T03:05:30.448Z,8.77
2018-08-31T03:07:58.493Z,8.10
2018-08-31T03:10:26.568Z,9.17
2018-08-31T03:12:54.732Z,9.60
2018-08-31T03:15:22.810Z,7.70
2018-08-31T03:17:50.925Z,8.03
2018-08-31T03:20:18.980Z,7.83
2018-08-31T03:22:47.029Z,8.03
2018-08-31T03:25:15.084Z,7.40
2018-08-31T03:27:43.131Z,7.20
2018-08-31T03:30:11.306Z,7.67
2018-08-31T03:32:39.370Z,8.10
2018-08-31T03:35:07.795Z,7.90
2018-08-31T03:37:35.913Z,7.60
2018-08-31T03:40:04.557Z,7.17
2018-08-31T03:42:32.666Z,8.40
2018-08-31T03:45:00.729Z,7.67
2018-08-31T03:47:28.803Z,8.00
2018-08-31T03:49:56.965Z,7.57
2018-08-31T03:52:25.053Z,8.00
2018-08-31T03:54:53.173Z,7.70
2018-08-31T03:57:21.271Z,7.77
2018-08-31T03:59:50.297Z,7.73
2018-08-31T04:02:18.404Z,7.60
2018-08-31T04:04:46.459Z,7.93
2018-08-31T04:07:14.569Z,7.63
2018-08-31T04:09:42.779Z,7.57
2018-08-31T04:12:10.939Z,7.10
2018-08-31T04:14:39.080Z,6.90
2018-08-31T04:17:07.425Z,7.37
2018-08-31T04:19:35.493Z,8.60
2018-08-31T04:22:03.586Z,7.30
2018-08-31T04:24:31.644Z,6.87
2018-08-31T04:27:00.065Z,6.20
2018-08-31T04:29:28.108Z,7.17
2018-08-31T04:31:56.272Z,7.17
2018-08-31T04:34:24.411Z,6.80
2018-08-31T04:36:52.691Z,7.10
2018-08-31T04:39:20.821Z,7.20
2018-08-31T04:41:49.000Z,6.97
2018-08-31T04:44:17.067Z,7.40
2018-08-31T04:46:45.309Z,6.90
2018-08-31T04:49:13.394Z,6.90
2018-08-31T04:51:41.469Z,6.97
2018-08-31T04:54:09.544Z,7.63
2018-08-31T04:56:37.610Z,7.57
2018-08-31T04:59:05.689Z,7.13
2018-08-31T05:01:33.953Z,7.70
2018-08-31T05:04:02.080Z,7.43
2018-08-31T05:06:30.134Z,6.90
2018-08-31T05:08:58.258Z,7.07
2018-08-31T05:11:26.324Z,7.70
2018-08-31T05:13:54.532Z,7.03
2018-08-31T05:16:22.587Z,7.47
2018-08-31T05:18:50.695Z,6.60
2018-08-31T05:21:18.802Z,7.37
2018-08-31T05:23:46.997Z,6.60
2018-08-31T05:26:15.105Z,7.53
2018-08-31T05:28:43.172Z,7.60
2018-08-31T05:31:11.264Z,7.60
2018-08-31T05:33:39.388Z,7.03
2018-08-31T05:36:07.592Z,7.57
2018-08-31T05:38:36.006Z,7.20
2018-08-31T05:41:04.444Z,6.70
2018-08-31T05:43:32.549Z,9.13
2018-08-31T05:46:00.616Z,7.07
2018-08-31T05:48:28.709Z,7.10
2018-08-31T05:50:56.803Z,7.50
2018-08-31T05:53:24.900Z,7.03
2018-08-31T05:55:53.106Z,6.60
2018-08-31T05:58:21.182Z,6.87
2018-08-31T06:00:49.276Z,6.57
2018-08-31T06:03:17.352Z,7.53
2018-08-31T06:05:45.487Z,7.50
2018-08-31T06:08:13.603Z,8.73
2018-08-31T06:10:41.731Z,6.73
2018-08-31T06:13:10.056Z,7.50
2018-08-31T06:15:38.121Z,7.77
2018-08-31T06:18:07.001Z,6.90
2018-08-31T06:20:35.077Z,6.80
2018-08-31T06:23:03.160Z,7.40
2018-08-31T06:25:31.348Z,8.00
2018-08-31T06:27:59.400Z,6.87
2018-08-31T06:30:27.485Z,8.70
2018-08-31T06:32:55.557Z,8.63
2018-08-31T06:35:23.629Z,8.80
2018-08-31T06:37:51.711Z,8.70
2018-08-31T06:40:19.777Z,9.07
2018-08-31T06:42:48.224Z,8.53
2018-08-31T06:45:16.293Z,8.97
2018-08-31T06:47:44.370Z,8.77
2018-08-31T06:50:12.452Z,9.33
2018-08-31T06:52:40.524Z,10.17
2018-08-31T06:55:08.602Z,9.70
2018-08-31T06:57:36.831Z,9.20
2018-08-31T07:00:05.505Z,9.57
2018-08-31T07:02:33.664Z,9.57
2018-08-31T07:05:01.741Z,9.57
2018-08-31T07:07:29.865Z,9.87
2018-08-31T07:09:57.948Z,10.20
2018-08-31T07:12:26.119Z,9.57
2018-08-31T07:14:54.475Z,10.67
2018-08-31T07:17:22.545Z,10.47
2018-08-31T07:19:50.687Z,11.20
2018-08-31T07:22:18.940Z,11.33
2018-08-31T07:24:47.034Z,11.10
2018-08-31T07:27:15.217Z,10.50
2018-08-31T07:29:43.389Z,12.50
2018-08-31T07:32:11.508Z,12.53
2018-08-31T07:34:39.828Z,12.00
2018-08-31T07:37:07.909Z,11.90
2018-08-31T07:39:36.096Z,11.10
2018-08-31T07:42:04.495Z,12.73
2018-08-31T07:44:32.601Z,13.00
2018-08-31T07:47:00.668Z,14.23
2018-08-31T07:49:28.843Z,14.27
2018-08-31T07:51:56.998Z,15.70
2018-08-31T07:54:25.422Z,16.67
2018-08-31T07:56:53.491Z,15.13
2018-08-31T07:59:21.566Z,16.27
2018-08-31T08:01:49.648Z,17.57
2018-08-31T08:04:17.708Z,16.87
2018-08-31T08:06:45.836Z,17.80
2018-08-31T08:09:13.912Z,18.30
2018-08-31T08:11:41.961Z,17.17
2018-08-31T08:14:10.065Z,16.43
2018-08-31T08:16:38.336Z,16.50
2018-08-31T08:19:06.457Z,16.93
2018-08-31T08:21:34.554Z,17.97
2018-08-31T08:24:02.627Z,18.50
2018-08-31T08:26:30.737Z,18.77
2018-08-31T08:28:58.828Z,17.60
2018-08-31T08:31:26.896Z,19.20
2018-08-31T08:33:54.977Z,17.77
2018-08-31T08:36:23.176Z,17.70
2018-08-31T08:38:51.286Z,16.87
2018-08-31T08:41:19.358Z,18.80
2018-08-31T08:43:47.495Z,18.67
2018-08-31T08:46:15.583Z,19.03
2018-08-31T08:48:43.831Z,20.20
2018-08-31T08:51:11.957Z,19.33
2018-08-31T08:53:40.037Z,19.10
2018-08-31T08:56:08.284Z,18.80
2018-08-31T08:58:36.457Z,19.70
2018-08-31T09:01:04.805Z,18.40
2018-08-31T09:03:32.867Z,17.47
2018-08-31T09:06:00.970Z,20.50
2018-08-31T09:08:29.923Z,18.50
2018-08-31T09:10:57.988Z,19.20
2018-08-31T09:13:26.070Z,20.10
2018-08-31T09:15:54.169Z,19.30
2018-08-31T09:18:23.878Z,18.43
2018-08-31T09:20:52.140Z,20.03
2018-08-31T09:23:20.203Z,18.57
2018-08-31T09:25:48.316Z,18.87
2018-08-31T09:28:16.396Z,18.90
2018-08-31T09:30:45.892Z,19.37
2018-08-31T09:33:15.612Z,21.53
2018-08-31T09:35:43.785Z,20.23
2018-08-31T09:38:11.867Z,22.60
2018-08-31T09:40:40.181Z,20.43
2018-08-31T09:43:08.832Z,20.07
2018-08-31T09:45:36.908Z,21.57
2018-08-31T09:48:05.502Z,22.70
2018-08-31T09:50:33.625Z,22.40
2018-08-31T09:53:01.827Z,22.23
2018-08-31T09:55:29.912Z,24.80
2018-08-31T09:57:58.473Z,24.60
2018-08-31T10:00:32.153Z,24.63
2018-08-31T10:03:06.645Z,24.77
2018-08-31T10:05:34.766Z,26.40
2018-08-31T10:08:02.859Z,24.43
2018-08-31T10:10:31.002Z,22.60
2018-08-31T10:12:59.100Z,22.90
2018-08-31T10:15:27.169Z,21.70
2018-08-31T10:17:55.232Z,23.77
2018-08-31T10:20:23.325Z,24.80
2018-08-31T10:22:51.420Z,24.60
2018-08-31T10:25:19.523Z,23.40
2018-08-31T10:27:47.597Z,23.40
2018-08-31T10:30:15.708Z,24.20
2018-08-31T10:32:43.945Z,24.27
2018-08-31T10:35:12.372Z,26.50
2018-08-31T10:37:40.515Z,25.37
2018-08-31T10:40:08.598Z,24.90
2018-08-31T10:42:37.023Z,25.57
2018-08-31T10:45:05.858Z,25.93
2018-08-31T10:47:33.985Z,28.20
2018-08-31T10:50:02.101Z,26.23
2018-08-31T10:52:30.172Z,27.40
2018-08-31T10:54:58.272Z,25.03
2018-08-31T10:57:27.152Z,23.03
2018-08-31T10:59:55.392Z,22.50
2018-08-31T11:02:23.500Z,23.33
2018-08-31T11:04:51.580Z,22.53
2018-08-31T11:07:19.711Z,24.40
2018-08-31T11:09:47.823Z,23.67
2018-08-31T11:12:15.913Z,22.73
2018-08-31T11:14:44.013Z,25.37
2018-08-31T11:17:12.113Z,24.90
2018-08-31T11:19:40.492Z,23.70
2018-08-31T11:22:08.569Z,24.00
2018-08-31T11:24:36.693Z,22.83
2018-08-31T11:27:04.760Z,24.90
2018-08-31T11:29:32.849Z,23.87
2018-08-31T11:32:00.929Z,24.70
2018-08-31T11:34:28.997Z,22.70
2018-08-31T11:36:57.116Z,23.37
2018-08-31T11:39:25.241Z,23.17
2018-08-31T11:41:53.330Z,23.33
2018-08-31T11:44:21.526Z,25.60
2018-08-31T11:46:49.896Z,23.40
2018-08-31T11:49:17.977Z,23.60
2018-08-31T11:51:46.101Z,23.63
2018-08-31T11:54:14.376Z,24.57
2018-08-31T11:56:42.456Z,25.60
2018-08-31T11:59:10.648Z,21.73
2018-08-31T12:01:38.784Z,23.70
2018-08-31T12:04:06.881Z,24.60
2018-08-31T12:06:34.948Z,25.00
2018-08-31T12:09:03.652Z,24.87
2018-08-31T12:11:31.756Z,23.97
2018-08-31T12:13:59.851Z,22.70
2018-08-31T12:16:28.148Z,22.70
2018-08-31T12:18:56.265Z,22.40
2018-08-31T12:21:24.353Z,23.90
2018-08-31T12:23:52.428Z,23.80
2018-08-31T12:26:20.529Z,23.40
2018-08-31T12:28:48.621Z,21.57
2018-08-31T12:31:16.724Z,20.47
2018-08-31T12:33:44.822Z,19.97
2018-08-31T12:36:12.917Z,20.97
2018-08-31T12:38:41.005Z,18.93
2018-08-31T12:41:09.087Z,17.20
2018-08-31T12:43:37.237Z,19.30
2018-08-31T12:46:05.501Z,16.70
2018-08-31T12:48:33.582Z,17.47
2018-08-31T12:51:01.713Z,20.20
2018-08-31T12:53:29.861Z,18.33
2018-08-31T12:55:57.918Z,20.27
2018-08-31T12:58:26.180Z,17.80
2018-08-31T13:00:54.241Z,18.50
2018-08-31T13:03:22.340Z,16.87
2018-08-31T13:05:50.623Z,18.20
2018-08-31T13:08:18.713Z,19.00
2018-08-31T13:10:46.805Z,19.83
2018-08-31T13:13:14.912Z,19.73
2018-08-31T13:15:42.997Z,20.10
2018-08-31T13:18:11.090Z,24.27
2018-08-31T13:20:39.226Z,23.20
2018-08-31T13:23:07.376Z,23.70
2018-08-31T13:25:35.797Z,24.33
2018-08-31T13:28:03.905Z,23.63
2018-08-31T13:30:31.982Z,24.40
2018-08-31T13:33:00.099Z,23.00
2018-08-31T13:35:28.237Z,23.13
2018-08-31T13:37:56.323Z,22.83
2018-08-31T13:40:24.597Z,21.90
2018-08-31T13:42:52.804Z,21.03
2018-08-31T13:45:20.924Z,21.40
2018-08-31T13:47:49.269Z,22.77
2018-08-31T13:50:17.364Z,20.30
2018-08-31T13:52:45.562Z,18.77
2018-08-31T13:55:13.763Z,17.30
2018-08-31T13:57:41.994Z,17.73
2018-08-31T14:00:10.444Z,17.70
2018-08-31T14:02:38.616Z,18.10
2018-08-31T14:05:06.724Z,19.60
2018-08-31T14:07:34.832Z,18.90
2018-08-31T14:10:03.486Z,19.30
2018-08-31T14:12:31.773Z,21.93
2018-08-31T14:14:59.840Z,20.10
2018-08-31T14:17:27.916Z,20.00
2018-08-31T14:19:56.593Z,19.33
2018-08-31T14:22:24.665Z,21.90
2018-08-31T14:24:52.741Z,21.40
2018-08-31T14:27:20.802Z,22.00
2018-08-31T14:29:49.905Z,21.17
2018-08-31T14:32:19.168Z,20.73
2018-08-31T14:34:48.214Z,21.47
2018-08-31T14:37:17.137Z,20.60
2018-08-31T14:39:45.278Z,20.83
2018-08-31T14:42:13.361Z,20.93
2018-08-31T14:44:41.417Z,20.57
2018-08-31T14:47:09.770Z,21.23
2018-08-31T14:49:38.053Z,21.40
2018-08-31T14:52:06.185Z,23.97
2018-08-31T14:54:34.384Z,22.87
2018-08-31T14:57:02.442Z,23.13
2018-08-31T14:59:30.509Z,23.03
2018-08-31T15:01:58.582Z,22.27
2018-08-31T15:04:26.663Z,21.77
2018-08-31T15:06:54.775Z,23.50
2018-08-31T15:09:22.854Z,19.80
2018-08-31T15:11:50.951Z,22.70
2018-08-31T15:14:19.024Z,19.17
2018-08-31T15:16:47.082Z,19.20
2018-08-31T15:19:15.197Z,20.60
2018-08-31T15:21:43.296Z,18.90
2018-08-31T15:24:11.371Z,18.40
2018-08-31T15:26:40.064Z,19.07
2018-08-31T15:29:08.262Z,19.63
2018-08-31T15:31:36.640Z,20.20
2018-08-31T15:34:04.862Z,18.93
2018-08-31T15:36:34.696Z,18.07
2018-08-31T15:39:02.915Z,17.93
2018-08-31T15:41:31.013Z,18.73
2018-08-31T15:43:59.167Z,17.03
2018-08-31T15:46:27.274Z,16.53
2018-08-31T15:48:55.348Z,16.73
2018-08-31T15:51:23.690Z,16.27
2018-08-31T15:53:51.840Z,17.77
2018-08-31T15:56:19.920Z,17.60
2018-08-31T15:58:48.056Z,18.17
2018-08-31T16:01:16.148Z,19.00
2018-08-31T16:03:44.712Z,19.40
2018-08-31T16:06:12.833Z,18.20
2018-08-31T16:08:40.978Z,19.30
2018-08-31T16:11:09.100Z,19.43
2018-08-31T16:13:37.168Z,20.00
2018-08-31T16:16:05.268Z,20.13
2018-08-31T16:18:33.381Z,20.27
2018-08-31T16:21:01.725Z,19.80
2018-08-31T16:23:29.966Z,21.47
2018-08-31T16:25:58.085Z,21.50
2018-08-31T16:28:26.157Z,21.77
2018-08-31T16:30:54.356Z,23.07
2018-08-31T16:33:22.442Z,22.57
2018-08-31T16:35:50.699Z,21.27
2018-08-31T16:38:18.907Z,20.50
2018-08-31T16:40:47.024Z,22.43
2018-08-31T16:43:15.181Z,22.80
2018-08-31T16:45:43.608Z,22.17
2018-08-31T16:48:11.691Z,22.67
2018-08-31T16:50:40.077Z,23.77
2018-08-31T16:53:08.273Z,22.00
2018-08-31T16:55:36.376Z,23.13
2018-08-31T16:58:04.536Z,22.67
2018-08-31T17:00:32.691Z,22.80
2018-08-31T17:03:00.811Z,22.00
2018-08-31T17:05:28.909Z,23.10
2018-08-31T17:07:56.985Z,20.57
2018-08-31T17:10:25.178Z,22.80
2018-08-31T17:12:53.276Z,22.03
2018-08-31T17:15:21.340Z,23.57
2018-08-31T17:17:49.461Z,23.63
2018-08-31T17:20:17.569Z,22.97
2018-08-31T17:22:45.670Z,22.90
2018-08-31T17:25:13.753Z,23.57
2018-08-31T17:27:47.201Z,25.23
2018-08-31T17:30:21.186Z,25.13
2018-08-31T17:32:55.186Z,25.30
2018-08-31T17:35:28.898Z,25.20
2018-08-31T17:37:59.794Z,24.60
2018-08-31T17:40:28.090Z,24.77
2018-08-31T17:42:56.964Z,24.57
2018-08-31T17:45:25.112Z,25.87
2018-08-31T17:47:53.333Z,24.70
2018-08-31T17:50:21.465Z,24.10
2018-08-31T17:52:49.556Z,24.10
2018-08-31T17:55:17.666Z,25.13
2018-08-31T17:57:45.770Z,23.23
2018-08-31T18:00:13.933Z,23.80
2018-08-31T18:02:42.083Z,23.27
2018-08-31T18:05:10.228Z,22.87
2018-08-31T18:07:38.312Z,25.93
2018-08-31T18:10:06.704Z,25.70
2018-08-31T18:12:35.320Z,22.20
2018-08-31T18:15:03.853Z,23.87
2018-08-31T18:17:32.290Z,24.47
2018-08-31T18:20:00.524Z,24.70
2018-08-31T18:22:28.833Z,22.60
2018-08-31T18:24:56.904Z,23.90
2018-08-31T18:27:24.988Z,22.70
2018-08-31T18:29:53.080Z,22.80
2018-08-31T18:32:21.252Z,24.47
2018-08-31T18:34:49.339Z,27.03
2018-08-31T18:37:17.542Z,24.27
2018-08-31T18:39:45.721Z,22.70
2018-08-31T18:42:14.009Z,22.63
2018-08-31T18:44:42.079Z,22.97
2018-08-31T18:47:10.289Z,23.10
2018-08-31T18:49:38.439Z,25.67
2018-08-31T18:52:06.624Z,29.93
2018-08-31T18:54:34.732Z,23.80
2018-08-31T18:57:02.834Z,23.20
2018-08-31T18:59:31.005Z,24.13
2018-08-31T19:01:59.081Z,23.20
2018-08-31T19:04:27.240Z,22.80
2018-08-31T19:06:55.478Z,24.60
2018-08-31T19:09:23.740Z,25.57
2018-08-31T19:11:52.012Z,25.03
2018-08-31T19:14:20.072Z,24.00
2018-08-31T19:16:48.148Z,26.07
2018-08-31T19:19:16.308Z,24.50
2018-08-31T19:21:44.487Z,25.10
2018-08-31T19:24:12.725Z,25.50
2018-08-31T19:26:40.841Z,24.80
2018-08-31T19:29:08.913Z,25.70
2018-08-31T19:31:37.395Z,26.53
2018-08-31T19:34:05.488Z,25.50
2018-08-31T19:36:35.158Z,26.70
2018-08-31T19:39:04.506Z,25.10
2018-08-31T19:41:32.605Z,25.30
2018-08-31T19:44:00.694Z,25.47
2018-08-31T19:46:28.794Z,25.53
2018-08-31T19:48:56.995Z,26.20
2018-08-31T19:51:25.138Z,27.57
2018-08-31T19:53:53.265Z,25.90
2018-08-31T19:56:21.581Z,25.17
2018-08-31T19:58:49.695Z,23.47
2018-08-31T20:01:17.805Z,24.27
2018-08-31T20:03:45.970Z,29.33
2018-08-31T20:06:14.236Z,23.77
2018-08-31T20:08:42.388Z,24.67
2018-08-31T20:11:10.454Z,24.80
2018-08-31T20:13:38.772Z,22.90
2018-08-31T20:16:07.022Z,24.20
2018-08-31T20:18:35.324Z,24.23
2018-08-31T20:21:03.395Z,22.87
2018-08-31T20:23:31.472Z,24.37
2018-08-31T20:25:59.581Z,24.90
2018-08-31T20:28:27.685Z,23.63
2018-08-31T20:30:55.852Z,26.00
2018-08-31T20:33:24.104Z,25.90
2018-08-31T20:35:52.208Z,24.47
2018-08-31T20:38:20.318Z,25.93
2018-08-31T20:40:48.484Z,26.50
2018-08-31T20:43:16.921Z,26.03
2018-08-31T20:45:45.133Z,25.07
2018-08-31T20:48:13.299Z,25.33
2018-08-31T20:50:41.397Z,26.87
2018-08-31T20:53:09.585Z,26.60
2018-08-31T20:55:37.680Z,25.00
2018-08-31T20:58:05.934Z,25.87
2018-08-31T21:00:33.974Z,25.83
2018-08-31T21:03:02.047Z,25.73
2018-08-31T21:05:30.115Z,26.17
2018-08-31T21:07:58.217Z,25.87
2018-08-31T21:10:26.325Z,25.50
2018-08-31T21:12:54.421Z,25.93
2018-08-31T21:15:22.530Z,27.77
2018-08-31T21:17:52.308Z,24.17
2018-08-31T21:20:20.430Z,25.97
2018-08-31T21:22:48.504Z,25.83
2018-08-31T21:25:17.745Z,25.20
2018-08-31T21:27:45.848Z,27.20
2018-08-31T21:30:14.016Z,28.53
2018-08-31T21:32:42.084Z,28.50
2018-08-31T21:35:10.215Z,37.80
2018-08-31T21:37:38.311Z,26.73
2018-08-31T21:40:06.781Z,26.10
2018-08-31T21:42:34.897Z,25.10
2018-08-31T21:45:03.134Z,26.83
2018-08-31T21:47:31.409Z,25.10
2018-08-31T21:49:59.517Z,28.03
2018-08-31T21:52:27.629Z,25.73
2018-08-31T21:54:58.905Z,25.67
2018-08-31T21:57:26.997Z,23.20
2018-08-31T21:59:55.065Z,24.90
2018-08-31T22:02:23.115Z,24.33
2018-08-31T22:04:51.297Z,27.37
2018-08-31T22:07:19.542Z,27.20
2018-08-31T22:09:47.876Z,25.70
2018-08-31T22:12:16.089Z,26.53
2018-08-31T22:14:44.229Z,28.83
2018-08-31T22:17:12.309Z,25.67
2018-08-31T22:19:40.472Z,26.83
2018-08-31T22:22:08.574Z,26.37
2018-08-31T22:24:36.828Z,28.13
2018-08-31T22:27:04.921Z,27.77
2018-08-31T22:29:33.204Z,28.10
2018-08-31T22:32:01.268Z,25.80
2018-08-31T22:34:29.481Z,25.47
2018-08-31T22:36:58.141Z,24.63
2018-08-31T22:39:26.209Z,22.50
2018-08-31T22:41:54.334Z,22.07
2018-08-31T22:44:22.504Z,21.97
2018-08-31T22:46:50.690Z,22.53
2018-08-31T22:49:18.776Z,20.83
2018-08-31T22:51:46.894Z,22.17
2018-08-31T22:54:14.977Z,19.30
2018-08-31T22:56:43.045Z,19.30
2018-08-31T22:59:11.225Z,20.97
2018-08-31T23:01:39.372Z,20.40
2018-08-31T23:04:07.500Z,20.57
2018-08-31T23:06:35.580Z,19.80
2018-08-31T23:09:04.772Z,20.43
2018-08-31T23:11:32.840Z,19.57
2018-08-31T23:14:01.023Z,22.47
2018-08-31T23:16:29.212Z,22.20
2018-08-31T23:18:57.280Z,23.87
2018-08-31T23:21:25.371Z,31.10
2018-08-31T23:23:53.624Z,38.20
2018-08-31T23:26:21.821Z,27.63
2018-08-31T23:28:49.889Z,28.40
2018-08-31T23:31:17.973Z,28.27
2018-08-31T23:33:46.131Z,28.30
2018-08-31T23:36:14.315Z,30.70
2018-08-31T23:38:42.493Z,30.83
2018-08-31T23:41:10.649Z,31.80
2018-08-31T23:43:38.843Z,31.93
2018-08-31T23:46:07.340Z,33.27
2018-08-31T23:48:35.416Z,32.83
2018-08-31T23:51:03.484Z,33.30
2018-08-31T23:53:31.645Z,32.33
2018-08-31T23:55:59.711Z,33.80
2018-08-31T23:58:27.794Z,33.27
